createdAt,value
2019-02-22T00:02:21.790Z,52.67
2019-02-22T00:05:01.402Z,51.90
2019-02-22T00:07:41.637Z,54.57
2019-02-22T00:10:21.818Z,50.63
2019-02-22T00:13:01.773Z,55.23
2019-02-22T00:15:41.920Z,57.87
2019-02-22T00:18:21.775Z,54.50
2019-02-22T00:21:01.839Z,50.70
2019-02-22T00:23:41.712Z,54.27
2019-02-22T00:26:21.874Z,52.53
2019-02-22T00:29:02.114Z,60.77
2019-02-22T00:31:42.234Z,59.63
2019-02-22T00:34:22.176Z,60.47
2019-02-22T00:37:02.342Z,65.73
2019-02-22T00:39:42.200Z,65.00
2019-02-22T00:42:22.250Z,64.20
2019-02-22T00:45:02.323Z,71.10
2019-02-22T00:47:42.342Z,64.30
2019-02-22T00:50:22.462Z,67.00
2019-02-22T00:53:02.541Z,68.23
2019-02-22T00:55:29.898Z,76.97
2019-02-22T00:58:16.658Z,67.57
2019-02-22T01:01:03.516Z,70.50
2019-02-22T01:03:50.361Z,78.60
2019-02-22T01:06:37.169Z,77.17
2019-02-22T01:09:24.097Z,78.17
2019-02-22T01:12:10.949Z,77.70
2019-02-22T01:14:57.821Z,79.57
2019-02-22T01:17:44.661Z,86.67
2019-02-22T01:20:31.531Z,65.80
2019-02-22T01:26:24.808Z,69.13
2019-02-22T01:29:11.536Z,66.47
2019-02-22T01:31:58.400Z,69.53
2019-02-22T01:34:45.217Z,73.43
2019-02-22T01:37:32.080Z,64.83
2019-02-22T01:40:18.916Z,69.27
2019-02-22T01:43:05.774Z,62.13
2019-02-22T01:45:52.647Z,73.57
2019-02-22T01:48:39.509Z,68.73
2019-02-22T01:51:26.345Z,67.43
2019-02-22T01:54:13.212Z,64.60
2019-02-22T01:57:00.032Z,66.17
2019-02-22T01:59:46.909Z,66.20
2019-02-22T02:02:33.759Z,67.50
2019-02-22T02:05:20.592Z,65.73
2019-02-22T02:08:07.422Z,71.50
2019-02-22T02:10:54.603Z,67.30
2019-02-22T02:14:03.109Z,73.50
2019-02-22T02:16:49.943Z,74.03
2019-02-22T02:19:36.765Z,69.90
2019-02-22T02:22:23.629Z,78.43
2019-02-22T02:25:03.832Z,78.13
2019-02-22T02:27:43.888Z,78.60
2019-02-22T02:30:24.105Z,88.77
2019-02-22T02:33:04.107Z,88.97
2019-02-22T02:35:44.271Z,98.77
2019-02-22T02:38:24.259Z,106.10
2019-02-22T02:41:10.022Z,106.30
2019-02-22T02:43:46.630Z,115.70
2019-02-22T02:46:26.641Z,111.93
2019-02-22T02:49:06.780Z,107.73
2019-02-22T02:51:46.872Z,113.37
2019-02-22T02:54:27.054Z,107.90
2019-02-22T02:57:07.117Z,102.17
2019-02-22T02:59:47.268Z,97.87
2019-02-22T03:02:28.537Z,83.17
2019-02-22T03:05:08.301Z,90.33
2019-02-22T03:07:48.316Z,83.30
2019-02-22T03:10:31.325Z,83.87
2019-02-22T03:13:10.581Z,87.43
2019-02-22T03:15:50.572Z,79.27
2019-02-22T03:18:30.761Z,70.67
2019-02-22T03:21:10.772Z,72.60
2019-02-22T03:23:50.995Z,69.13
2019-02-22T03:26:31.182Z,72.53
2019-02-22T03:29:11.072Z,67.57
2019-02-22T03:31:50.924Z,72.30
2019-02-22T03:34:30.889Z,70.17
2019-02-22T03:37:11.057Z,70.00
2019-02-22T03:39:51.230Z,71.23
2019-02-22T03:42:31.415Z,75.07
2019-02-22T03:45:11.593Z,75.93
2019-02-22T03:47:51.584Z,71.33
2019-02-22T03:50:31.728Z,73.83
2019-02-22T03:53:34.331Z,75.13
2019-02-22T03:56:13.907Z,69.50
2019-02-22T03:58:54.036Z,80.10
2019-02-22T04:01:33.989Z,79.43
2019-02-22T04:04:14.062Z,77.97
2019-02-22T04:06:54.100Z,73.80
2019-02-22T04:09:34.330Z,79.00
2019-02-22T04:12:14.546Z,78.80
2019-02-22T04:14:55.047Z,79.80
2019-02-22T04:17:34.817Z,81.93
2019-02-22T04:20:14.830Z,69.27
2019-02-22T04:22:44.452Z,81.93
2019-02-22T04:25:50.740Z,88.10
2019-02-22T04:28:37.557Z,81.00
2019-02-22T04:31:24.437Z,89.50
2019-02-22T04:34:11.255Z,90.20
2019-02-22T04:40:11.321Z,90.40
2019-02-22T04:42:38.673Z,83.37
2019-02-22T04:45:25.490Z,89.23
2019-02-22T04:48:12.357Z,81.40
2019-02-22T04:50:59.314Z,68.67
2019-02-22T04:53:46.169Z,81.07
2019-02-22T04:56:32.991Z,73.40
2019-02-22T04:59:19.742Z,71.80
2019-02-22T05:02:06.599Z,74.57
2019-02-22T05:04:53.461Z,74.53
2019-02-22T05:07:40.299Z,68.23
2019-02-22T05:10:27.190Z,70.07
2019-02-22T05:13:14.204Z,73.13
2019-02-22T05:16:01.098Z,65.13
2019-02-22T05:18:47.932Z,71.70
2019-02-22T05:21:34.779Z,72.40
2019-02-22T05:24:14.791Z,83.60
2019-02-22T05:26:54.877Z,72.17
2019-02-22T05:29:34.934Z,78.30
2019-02-22T05:32:15.095Z,70.43
2019-02-22T05:34:55.057Z,73.37
2019-02-22T05:37:34.963Z,68.90
2019-02-22T05:40:14.818Z,70.77
2019-02-22T05:42:42.202Z,77.03
2019-02-22T05:45:29.074Z,75.50
2019-02-22T05:47:56.485Z,75.40
2019-02-22T05:50:43.430Z,74.97
2019-02-22T05:53:30.291Z,71.13
2019-02-22T05:56:17.170Z,69.33
2019-02-22T05:59:24.007Z,70.30
2019-02-22T06:05:17.389Z,77.20
2019-02-22T06:08:11.785Z,74.33
2019-02-22T06:10:39.252Z,80.27
2019-02-22T06:13:06.595Z,78.00
2019-02-22T06:15:33.936Z,82.80
2019-02-22T06:18:01.269Z,84.50
2019-02-22T06:20:28.638Z,78.17
2019-02-22T06:22:56.018Z,81.83
2019-02-22T06:25:23.401Z,86.13
2019-02-22T06:27:50.798Z,86.30
2019-02-22T06:30:18.189Z,86.10
2019-02-22T06:32:45.540Z,88.60
2019-02-22T06:35:12.924Z,83.27
2019-02-22T06:37:40.282Z,84.63
2019-02-22T06:40:07.649Z,96.67
2019-02-22T06:42:44.913Z,89.40
2019-02-22T06:45:04.510Z,83.90
2019-02-22T06:47:31.926Z,85.93
2019-02-22T06:49:59.250Z,77.30
2019-02-22T06:52:46.176Z,80.93
2019-02-22T06:55:33.072Z,81.77
2019-02-22T06:58:19.936Z,76.53
2019-02-22T07:01:06.756Z,89.07
2019-02-22T07:03:53.622Z,86.77
2019-02-22T07:06:40.447Z,90.00
2019-02-22T07:09:27.283Z,95.00
2019-02-22T07:12:14.157Z,81.23
2019-02-22T07:15:01.035Z,93.03
2019-02-22T07:17:47.995Z,91.00
2019-02-22T07:20:34.911Z,89.80
2019-02-22T07:23:14.879Z,93.50
2019-02-22T07:25:54.821Z,88.53
2019-02-22T07:28:35.011Z,90.27
2019-02-22T07:31:14.975Z,87.57
2019-02-22T07:33:54.799Z,90.30
2019-02-22T07:36:34.874Z,88.13
2019-02-22T07:39:14.913Z,85.00
2019-02-22T07:41:55.017Z,84.30
2019-02-22T07:44:34.979Z,82.90
2019-02-22T07:47:15.192Z,84.33
2019-02-22T07:49:55.200Z,76.73
2019-02-22T07:52:35.129Z,79.27
2019-02-22T07:55:15.036Z,81.00
2019-02-22T07:57:42.297Z,80.43
2019-02-22T08:00:11.755Z,91.83
2019-02-22T08:02:39.223Z,82.17
2019-02-22T08:05:09.042Z,89.57
2019-02-22T08:07:35.865Z,96.10
2019-02-22T08:10:03.391Z,93.47
2019-02-22T08:12:30.762Z,89.13
2019-02-22T08:14:58.115Z,96.93
2019-02-22T08:17:25.513Z,97.20
2019-02-22T08:19:52.959Z,83.73
2019-02-22T08:22:20.860Z,90.97
2019-02-22T08:24:48.294Z,101.13
2019-02-22T08:27:35.199Z,99.80
2019-02-22T08:30:22.057Z,106.43
2019-02-22T08:33:08.887Z,102.97
2019-02-22T08:35:55.713Z,121.27
2019-02-22T08:38:42.569Z,110.03
2019-02-22T08:41:29.437Z,111.43
2019-02-22T08:44:16.335Z,118.87
2019-02-22T08:47:03.209Z,112.23
2019-02-22T08:49:50.044Z,112.43
2019-02-22T08:52:37.162Z,109.43
2019-02-22T08:55:23.965Z,111.00
2019-02-22T08:58:10.815Z,114.70
2019-02-22T09:00:57.684Z,115.40
2019-02-22T09:03:50.633Z,122.73
2019-02-22T09:06:53.425Z,124.07
2019-02-22T09:09:40.265Z,116.33
2019-02-22T09:12:27.099Z,108.30
2019-02-22T09:15:13.949Z,109.47
2019-02-22T09:18:00.991Z,107.30
2019-02-22T09:20:40.569Z,101.37
2019-02-22T09:23:20.789Z,109.37
2019-02-22T09:26:01.053Z,105.57
2019-02-22T09:28:41.120Z,97.50
2019-02-22T09:31:21.150Z,98.90
2019-02-22T09:34:01.271Z,97.87
2019-02-22T09:36:41.410Z,91.80
2019-02-22T09:39:21.631Z,93.50
2019-02-22T09:42:01.640Z,89.70
2019-02-22T09:44:41.705Z,91.53
2019-02-22T09:47:21.813Z,88.50
2019-02-22T09:50:01.912Z,90.27
2019-02-22T09:52:41.930Z,89.17
2019-02-22T09:55:21.864Z,89.83
2019-02-22T09:58:01.875Z,89.00
2019-02-22T10:00:41.862Z,86.70
2019-02-22T10:03:22.196Z,86.43
2019-02-22T10:06:02.510Z,72.30
2019-02-22T10:08:42.720Z,77.57
2019-02-22T10:11:22.925Z,75.67
2019-02-22T10:14:06.620Z,69.83
2019-02-22T10:16:44.946Z,72.47
2019-02-22T10:19:25.145Z,70.33
2019-02-22T10:22:05.145Z,64.87
2019-02-22T10:24:45.118Z,66.10
2019-02-22T10:27:25.137Z,64.60
2019-02-22T10:30:05.357Z,60.87
2019-02-22T10:32:45.220Z,60.80
2019-02-22T10:35:25.344Z,51.93
2019-02-22T10:38:05.478Z,50.37
2019-02-22T10:40:45.512Z,46.70
2019-02-22T10:43:25.558Z,39.63
2019-02-22T10:46:05.654Z,39.97
2019-02-22T10:48:45.746Z,36.40
2019-02-22T10:51:25.794Z,32.50
2019-02-22T10:54:06.010Z,33.97
2019-02-22T10:56:46.006Z,36.37
2019-02-22T10:59:25.900Z,33.10
2019-02-22T11:02:06.052Z,35.43
2019-02-22T11:04:45.884Z,35.30
2019-02-22T11:07:25.761Z,34.93
2019-02-22T11:10:05.602Z,32.03
2019-02-22T11:12:45.909Z,31.70
2019-02-22T11:15:26.002Z,33.67
2019-02-22T11:18:06.261Z,33.80
2019-02-22T11:20:46.174Z,35.90
2019-02-22T11:23:26.373Z,30.60
2019-02-22T11:26:07.082Z,23.33
2019-02-22T11:28:46.649Z,22.80
2019-02-22T11:31:26.863Z,23.03
2019-02-22T11:34:06.991Z,23.03
2019-02-22T11:36:46.992Z,25.97
2019-02-22T11:39:27.073Z,21.43
2019-02-22T11:42:07.228Z,22.70
2019-02-22T11:44:47.578Z,23.67
2019-02-22T11:47:27.629Z,25.73
2019-02-22T11:50:07.676Z,21.40
2019-02-22T11:52:47.749Z,18.30
2019-02-22T11:55:27.821Z,15.67
2019-02-22T11:58:07.874Z,18.97
2019-02-22T12:00:48.066Z,16.33
2019-02-22T12:03:27.980Z,16.33
2019-02-22T12:06:07.887Z,18.57
2019-02-22T12:08:48.058Z,14.40
2019-02-22T12:11:28.135Z,16.33
2019-02-22T12:14:08.078Z,16.60
2019-02-22T12:16:48.251Z,15.40
2019-02-22T12:19:28.270Z,12.13
2019-02-22T12:22:08.270Z,13.37
2019-02-22T12:24:48.320Z,11.87
2019-02-22T12:27:28.204Z,12.93
2019-02-22T12:30:08.259Z,12.70
2019-02-22T12:32:48.329Z,10.80
2019-02-22T12:35:28.344Z,11.57
2019-02-22T12:38:08.586Z,12.40
2019-02-22T12:40:48.550Z,10.97
2019-02-22T12:43:28.582Z,12.30
2019-02-22T12:46:08.649Z,10.77
2019-02-22T12:48:48.689Z,11.50
2019-02-22T12:51:28.689Z,12.10
2019-02-22T12:54:08.540Z,11.37
2019-02-22T12:56:57.961Z,11.17
2019-02-22T12:59:30.769Z,9.53
2019-02-22T13:02:10.785Z,8.10
2019-02-22T13:04:50.829Z,10.53
2019-02-22T13:07:30.893Z,10.53
2019-02-22T13:10:11.092Z,9.60
2019-02-22T13:12:50.933Z,8.57
2019-02-22T13:15:31.077Z,6.47
2019-02-22T13:18:11.183Z,5.73
2019-02-22T13:20:53.189Z,6.10
2019-02-22T13:23:33.081Z,5.67
2019-02-22T13:26:13.236Z,6.50
2019-02-22T13:28:53.515Z,6.00
2019-02-22T13:31:33.433Z,9.67
2019-02-22T13:34:13.268Z,6.60
2019-02-22T13:36:53.405Z,5.30
2019-02-22T13:39:33.125Z,5.93
2019-02-22T13:42:13.295Z,6.93
2019-02-22T13:44:53.361Z,6.13
2019-02-22T13:47:33.265Z,4.80
2019-02-22T13:50:13.398Z,7.57
2019-02-22T13:52:53.597Z,5.27
2019-02-22T13:55:33.584Z,4.60
2019-02-22T13:58:13.624Z,4.27
2019-02-22T14:00:53.777Z,5.37
2019-02-22T14:03:33.711Z,4.60
2019-02-22T14:06:13.655Z,4.60
2019-02-22T14:08:53.597Z,4.80
2019-02-22T14:11:33.410Z,5.40
2019-02-22T14:14:13.675Z,6.77
2019-02-22T14:16:53.664Z,5.07
2019-02-22T14:19:33.633Z,4.67
2019-02-22T14:22:13.432Z,3.77
2019-02-22T14:24:53.818Z,4.10
2019-02-22T14:27:33.552Z,3.93
2019-02-22T14:30:13.554Z,3.80
2019-02-22T14:32:53.588Z,3.73
2019-02-22T14:35:33.665Z,6.63
2019-02-22T14:38:13.455Z,5.27
2019-02-22T14:40:53.598Z,4.40
2019-02-22T14:43:34.030Z,5.37
2019-02-22T14:46:25.212Z,3.33
2019-02-22T14:48:56.249Z,3.30
2019-02-22T14:51:36.411Z,3.60
2019-02-22T14:54:16.428Z,2.97
2019-02-22T14:56:56.827Z,4.93
2019-02-22T14:59:37.747Z,3.37
2019-02-22T15:02:17.857Z,5.33
2019-02-22T15:04:58.069Z,4.17
2019-02-22T15:07:38.452Z,3.83
2019-02-22T15:10:18.930Z,4.57
2019-02-22T15:12:59.407Z,3.60
2019-02-22T15:16:01.764Z,2.87
2019-02-22T15:18:41.815Z,5.57
2019-02-22T15:21:21.480Z,3.40
2019-02-22T15:24:02.268Z,5.67
2019-02-22T15:26:42.733Z,5.07
2019-02-22T15:29:22.834Z,5.87
2019-02-22T15:32:02.973Z,3.20
2019-02-22T15:34:43.020Z,3.83
2019-02-22T15:37:23.207Z,3.63
2019-02-22T15:40:03.517Z,3.67
2019-02-22T15:42:43.638Z,7.90
2019-02-22T15:45:23.822Z,8.60
2019-02-22T15:48:04.145Z,4.70
2019-02-22T15:50:44.145Z,5.70
2019-02-22T15:53:24.156Z,3.70
2019-02-22T15:56:04.171Z,5.33
2019-02-22T15:58:44.273Z,4.30
2019-02-22T16:01:24.474Z,4.83
2019-02-22T16:04:24.173Z,6.83
2019-02-22T16:07:04.030Z,4.00
2019-02-22T16:09:44.212Z,6.03
2019-02-22T16:12:24.442Z,5.67
2019-02-22T16:15:04.365Z,3.93
2019-02-22T16:17:44.671Z,4.70
2019-02-22T16:20:24.863Z,4.40
2019-02-22T16:23:05.025Z,5.03
2019-02-22T16:25:44.934Z,5.50
2019-02-22T16:28:25.137Z,7.40
2019-02-22T16:31:05.114Z,9.40
2019-02-22T16:33:45.411Z,5.03
2019-02-22T16:36:25.375Z,6.17
2019-02-22T16:39:05.328Z,6.87
2019-02-22T16:41:45.517Z,5.70
2019-02-22T16:44:25.601Z,6.10
2019-02-22T16:47:05.840Z,6.17
2019-02-22T16:49:45.735Z,5.90
2019-02-22T16:52:25.701Z,5.63
2019-02-22T16:55:05.965Z,8.37
2019-02-22T16:57:45.945Z,9.57
2019-02-22T17:00:26.169Z,6.13
2019-02-22T17:03:06.249Z,7.30
2019-02-22T17:05:46.434Z,6.50
2019-02-22T17:08:28.249Z,7.27
2019-02-22T17:11:08.622Z,5.47
2019-02-22T17:13:48.653Z,7.37
2019-02-22T17:16:28.894Z,8.80
2019-02-22T17:19:09.009Z,10.10
2019-02-22T17:21:49.389Z,10.93
2019-02-22T17:24:29.144Z,7.67
2019-02-22T17:27:09.185Z,7.33
2019-02-22T17:29:49.155Z,5.80
2019-02-22T17:32:30.789Z,7.43
2019-02-22T17:35:10.423Z,6.47
2019-02-22T17:37:50.481Z,7.37
2019-02-22T17:40:30.323Z,8.47
2019-02-22T17:43:10.517Z,6.30
2019-02-22T17:45:50.475Z,10.23
2019-02-22T17:48:30.752Z,8.37
2019-02-22T17:51:10.686Z,7.83
2019-02-22T17:53:50.851Z,10.43
2019-02-22T17:56:30.897Z,10.20
2019-02-22T17:59:10.845Z,8.73
2019-02-22T18:01:50.771Z,8.40
2019-02-22T18:04:30.702Z,12.57
2019-02-22T18:07:10.934Z,10.60
2019-02-22T18:09:50.588Z,10.83
2019-02-22T18:12:30.590Z,10.40
2019-02-22T18:15:10.822Z,9.60
2019-02-22T18:20:33.951Z,11.60
2019-02-22T18:23:13.914Z,13.50
2019-02-22T18:25:54.064Z,11.07
2019-02-22T18:28:34.057Z,13.00
2019-02-22T18:31:14.160Z,14.87
2019-02-22T18:33:54.214Z,12.13
2019-02-22T18:36:32.223Z,13.03
2019-02-22T18:39:19.066Z,13.53
2019-02-22T18:42:05.914Z,16.17
2019-02-22T18:44:33.330Z,12.63
2019-02-22T18:47:20.172Z,12.07
2019-02-22T18:50:07.254Z,18.03
2019-02-22T18:52:54.229Z,15.87
2019-02-22T18:55:49.601Z,13.10
2019-02-22T18:58:49.754Z,12.37
2019-02-22T19:01:36.604Z,17.40
2019-02-22T19:04:23.488Z,16.67
2019-02-22T19:06:50.923Z,16.93
2019-02-22T19:12:50.368Z,15.93
2019-02-22T19:15:30.564Z,17.53
2019-02-22T19:18:10.491Z,15.27
2019-02-22T19:20:50.543Z,18.10
2019-02-22T19:23:30.578Z,19.90
2019-02-22T19:26:10.532Z,18.30
2019-02-22T19:28:50.489Z,17.20
2019-02-22T19:31:30.784Z,19.07
2019-02-22T19:34:10.850Z,17.30
2019-02-22T19:36:51.014Z,15.37
2019-02-22T19:39:31.234Z,17.83
2019-02-22T19:42:11.475Z,21.63
2019-02-22T19:44:51.463Z,18.73
2019-02-22T19:47:41.129Z,15.33
2019-02-22T19:50:13.518Z,17.57
2019-02-22T19:52:53.393Z,17.13
2019-02-22T19:55:33.464Z,16.33
2019-02-22T19:58:13.458Z,18.33
2019-02-22T20:00:54.165Z,20.10
2019-02-22T20:03:33.912Z,20.27
2019-02-22T20:06:14.260Z,19.77
2019-02-22T20:08:54.171Z,18.07
2019-02-22T20:11:34.237Z,16.33
2019-02-22T20:14:14.196Z,17.97
2019-02-22T20:16:54.407Z,17.23
2019-02-22T20:19:34.325Z,20.87
2019-02-22T20:22:16.164Z,17.03
2019-02-22T20:24:55.720Z,22.13
2019-02-22T20:27:36.044Z,17.60
2019-02-22T20:30:15.970Z,18.60
2019-02-22T20:32:56.197Z,16.30
2019-02-22T20:35:36.370Z,19.80
2019-02-22T20:38:16.589Z,17.13
2019-02-22T20:40:56.831Z,18.00
2019-02-22T20:43:36.818Z,15.97
2019-02-22T20:46:17.031Z,17.83
2019-02-22T20:49:00.943Z,19.37
2019-02-22T20:51:39.090Z,18.10
2019-02-22T20:54:19.184Z,18.43
2019-02-22T20:56:59.224Z,18.00
2019-02-22T20:59:39.337Z,17.37
2019-02-22T21:02:19.388Z,19.70
2019-02-22T21:04:59.596Z,20.17
2019-02-22T21:07:39.833Z,17.70
2019-02-22T21:10:20.093Z,17.83
2019-02-22T21:12:59.843Z,20.20
2019-02-22T21:15:39.810Z,17.40
2019-02-22T21:18:19.950Z,18.80
2019-02-22T21:20:59.889Z,18.80
2019-02-22T21:23:39.904Z,15.80
2019-02-22T21:26:19.938Z,16.20
2019-02-22T21:29:00.041Z,13.83
2019-02-22T21:31:40.011Z,15.03
2019-02-22T21:34:19.929Z,17.23
2019-02-22T21:37:00.244Z,17.73
2019-02-22T21:39:40.456Z,19.20
2019-02-22T21:42:20.719Z,20.20
2019-02-22T21:45:00.593Z,20.93
2019-02-22T21:47:40.767Z,18.67
2019-02-22T21:50:20.965Z,20.67
2019-02-22T21:53:00.731Z,16.53
2019-02-22T21:55:40.993Z,23.40
2019-02-22T21:58:21.306Z,20.30
2019-02-22T22:01:01.239Z,17.87
2019-02-22T22:03:41.115Z,19.83
2019-02-22T22:06:21.374Z,20.47
2019-02-22T22:09:01.480Z,19.23
2019-02-22T22:11:41.494Z,19.87
2019-02-22T22:14:21.570Z,20.77
2019-02-22T22:17:01.738Z,22.17
2019-02-22T22:19:41.884Z,22.07
2019-02-22T22:22:21.862Z,17.67
2019-02-22T22:25:01.881Z,19.23
2019-02-22T22:27:41.987Z,21.10
2019-02-22T22:30:21.981Z,21.30
2019-02-22T22:33:01.841Z,26.23
2019-02-22T22:35:42.021Z,20.70
2019-02-22T22:38:21.945Z,20.40
2019-02-22T22:41:01.973Z,20.30
2019-02-22T22:43:42.201Z,22.07
2019-02-22T22:46:22.379Z,19.93
2019-02-22T22:49:02.613Z,21.83
2019-02-22T22:51:42.789Z,25.00
2019-02-22T22:54:23.051Z,21.47
2019-02-22T22:57:03.259Z,21.23
2019-02-22T22:59:43.385Z,23.17
2019-02-22T23:02:23.641Z,21.03
2019-02-22T23:05:04.301Z,22.23
2019-02-22T23:07:43.891Z,21.33
2019-02-22T23:10:24.104Z,23.30
2019-02-22T23:13:04.443Z,21.63
2019-02-22T23:15:44.589Z,25.50
2019-02-22T23:18:24.725Z,20.97
2019-02-22T23:21:04.859Z,22.67
2019-02-22T23:23:45.009Z,23.73
2019-02-22T23:26:25.300Z,24.97
2019-02-22T23:29:05.075Z,24.60
2019-02-22T23:31:45.111Z,24.90
2019-02-22T23:34:25.135Z,26.60
2019-02-22T23:37:05.348Z,23.33
2019-02-22T23:39:45.129Z,28.07
2019-02-22T23:42:26.628Z,23.00
2019-02-22T23:45:06.135Z,22.75
2019-02-22T23:47:46.147Z,27.60
2019-02-22T23:50:26.091Z,24.97
2019-02-22T23:53:06.245Z,23.07
2019-02-22T23:55:46.510Z,21.90
2019-02-22T23:58:26.621Z,28.73
